createdAt,value
2018-07-26T00:01:06.572Z,10.43
2018-07-26T00:03:35.809Z,7.60
2018-07-26T00:06:04.408Z,11.00
2018-07-26T00:08:32.884Z,10.37
2018-07-26T00:11:01.389Z,8.93
2018-07-26T00:13:30.084Z,6.63
2018-07-26T00:15:58.540Z,11.67
2018-07-26T00:18:27.047Z,11.23
2018-07-26T00:20:55.480Z,9.50
2018-07-26T00:23:24.021Z,11.60
2018-07-26T00:25:53.422Z,11.67
2018-07-26T00:28:21.941Z,7.90
2018-07-26T00:30:50.393Z,8.03
2018-07-26T00:33:18.836Z,8.60
2018-07-26T00:35:47.313Z,9.60
2018-07-26T00:38:15.815Z,10.93
2018-07-26T00:40:44.236Z,15.87
2018-07-26T00:43:12.800Z,9.83
2018-07-26T00:45:41.255Z,7.80
2018-07-26T00:48:09.772Z,10.77
2018-07-26T00:50:38.220Z,8.63
2018-07-26T00:53:07.235Z,10.50
2018-07-26T00:55:35.702Z,8.20
2018-07-26T00:58:04.173Z,9.37
2018-07-26T01:00:32.803Z,8.70
2018-07-26T01:03:01.325Z,11.43
2018-07-26T01:05:29.864Z,9.80
2018-07-26T01:07:58.313Z,20.93
2018-07-26T01:10:26.767Z,9.63
2018-07-26T01:12:55.213Z,9.03
2018-07-26T01:15:23.740Z,11.07
2018-07-26T01:17:52.228Z,11.90
2018-07-26T01:20:20.684Z,13.50
2018-07-26T01:22:49.157Z,11.40
2018-07-26T01:25:17.602Z,7.07
2018-07-26T01:27:46.034Z,7.97
2018-07-26T01:30:14.667Z,10.73
2018-07-26T01:32:43.127Z,11.97
2018-07-26T01:35:11.569Z,7.03
2018-07-26T01:37:40.129Z,8.27
2018-07-26T01:40:08.557Z,6.93
2018-07-26T01:43:48.273Z,9.57
2018-07-26T01:46:17.633Z,8.40
2018-07-26T01:48:47.241Z,9.90
2018-07-26T01:51:15.760Z,9.83
2018-07-26T01:53:45.592Z,9.57
2018-07-26T01:56:14.144Z,12.20
2018-07-26T01:58:42.671Z,9.40
2018-07-26T02:01:12.313Z,11.47
2018-07-26T02:03:41.501Z,10.20
2018-07-26T02:06:10.193Z,12.57
2018-07-26T02:08:38.796Z,8.30
2018-07-26T02:11:07.204Z,8.43
2018-07-26T02:13:35.644Z,7.83
2018-07-26T02:16:04.157Z,8.37
2018-07-26T02:18:32.622Z,7.37
2018-07-26T02:21:01.045Z,8.90
2018-07-26T02:23:29.510Z,14.63
2018-07-26T02:25:58.016Z,15.00
2018-07-26T02:28:26.511Z,7.67
2018-07-26T02:30:54.964Z,11.40
2018-07-26T02:33:23.481Z,8.40
2018-07-26T02:35:51.906Z,13.27
2018-07-26T02:38:20.394Z,8.83
2018-07-26T02:40:48.788Z,11.97
2018-07-26T02:43:17.320Z,8.57
2018-07-26T02:45:45.817Z,10.70
2018-07-26T02:48:14.413Z,8.63
2018-07-26T02:50:42.889Z,8.73
2018-07-26T02:53:11.425Z,7.70
2018-07-26T02:55:39.910Z,8.57
2018-07-26T02:58:08.435Z,9.30
2018-07-26T03:00:36.905Z,10.60
2018-07-26T03:03:05.367Z,7.77
2018-07-26T03:05:33.796Z,13.07
2018-07-26T03:08:02.278Z,11.70
2018-07-26T03:10:30.437Z,10.20
2018-07-26T03:12:58.895Z,12.13
2018-07-26T03:15:27.364Z,9.33
2018-07-26T03:17:55.769Z,9.47
2018-07-26T03:20:24.210Z,8.60
2018-07-26T03:22:52.660Z,9.03
2018-07-26T03:25:21.112Z,13.90
2018-07-26T03:27:49.577Z,8.50
2018-07-26T03:30:18.013Z,19.60
2018-07-26T03:32:46.516Z,10.53
2018-07-26T03:35:15.176Z,11.60
2018-07-26T03:37:43.612Z,9.73
2018-07-26T03:40:12.085Z,8.43
2018-07-26T03:42:40.605Z,9.50
2018-07-26T03:45:09.040Z,14.70
2018-07-26T03:47:37.553Z,11.73
2018-07-26T03:50:06.074Z,12.10
2018-07-26T03:52:34.329Z,12.00
2018-07-26T03:55:02.722Z,9.63
2018-07-26T03:57:31.292Z,8.57
2018-07-26T03:59:59.779Z,8.27
2018-07-26T04:02:28.280Z,13.93
2018-07-26T04:04:56.454Z,10.60
2018-07-26T04:07:24.883Z,9.40
2018-07-26T04:09:53.410Z,10.13
2018-07-26T04:12:21.571Z,8.67
2018-07-26T04:14:50.106Z,10.80
2018-07-26T04:17:18.533Z,9.87
2018-07-26T04:19:47.004Z,10.27
2018-07-26T04:22:15.441Z,9.93
2018-07-26T04:24:44.092Z,9.17
2018-07-26T04:27:12.533Z,9.30
2018-07-26T04:29:40.976Z,10.13
2018-07-26T04:32:10.289Z,8.30
2018-07-26T04:34:38.712Z,10.13
2018-07-26T04:37:07.271Z,17.53
2018-07-26T04:39:35.704Z,12.53
2018-07-26T04:42:05.088Z,9.37
2018-07-26T04:44:33.572Z,10.50
2018-07-26T04:47:02.011Z,12.80
2018-07-26T04:49:30.437Z,11.37
2018-07-26T04:51:59.010Z,10.07
2018-07-26T04:54:27.540Z,8.70
2018-07-26T04:56:56.033Z,13.60
2018-07-26T04:59:24.500Z,11.10
2018-07-26T05:01:52.972Z,13.73
2018-07-26T05:04:21.535Z,12.83
2018-07-26T05:06:50.690Z,12.20
2018-07-26T05:09:19.120Z,15.07
2018-07-26T05:11:47.648Z,11.93
2018-07-26T05:14:16.208Z,13.70
2018-07-26T05:16:44.697Z,12.60
2018-07-26T05:19:13.176Z,9.40
2018-07-26T05:21:41.585Z,11.00
2018-07-26T05:24:10.821Z,16.93
2018-07-26T05:26:39.999Z,9.67
2018-07-26T05:29:08.496Z,14.10
2018-07-26T05:31:36.893Z,10.90
2018-07-26T05:34:05.456Z,9.97
2018-07-26T05:36:33.956Z,11.00
2018-07-26T05:39:02.514Z,9.47
2018-07-26T05:41:31.034Z,15.23
2018-07-26T05:43:59.194Z,9.40
2018-07-26T05:46:27.651Z,8.10
2018-07-26T05:48:56.222Z,10.53
2018-07-26T05:51:25.276Z,11.07
2018-07-26T05:53:53.752Z,8.00
2018-07-26T05:56:22.183Z,14.00
2018-07-26T05:58:50.694Z,13.83
2018-07-26T06:01:19.113Z,8.93
2018-07-26T06:03:48.352Z,11.17
2018-07-26T06:06:16.981Z,9.23
2018-07-26T06:08:45.156Z,11.20
2018-07-26T06:11:13.694Z,6.40
2018-07-26T06:13:42.216Z,6.70
2018-07-26T06:16:11.538Z,8.20
2018-07-26T06:18:40.081Z,8.97
2018-07-26T06:21:08.757Z,10.77
2018-07-26T06:23:37.336Z,8.90
2018-07-26T06:26:05.886Z,18.17
2018-07-26T06:28:34.051Z,8.17
2018-07-26T06:31:02.521Z,9.50
2018-07-26T06:33:31.154Z,14.43
2018-07-26T06:35:59.556Z,11.80
2018-07-26T06:38:28.030Z,11.60
2018-07-26T06:40:56.488Z,12.83
2018-07-26T06:43:25.053Z,12.60
2018-07-26T06:45:53.529Z,10.33
2018-07-26T06:48:21.983Z,8.97
2018-07-26T06:50:50.873Z,13.90
2018-07-26T06:53:19.349Z,11.53
2018-07-26T06:55:47.821Z,9.33
2018-07-26T06:58:16.292Z,10.33
2018-07-26T07:00:44.807Z,11.43
2018-07-26T07:03:13.312Z,12.40
2018-07-26T07:05:41.808Z,9.90
2018-07-26T07:08:10.362Z,10.80
2018-07-26T07:10:38.898Z,11.73
2018-07-26T07:13:07.393Z,11.70
2018-07-26T07:15:36.325Z,7.70
2018-07-26T07:18:04.980Z,8.03
2018-07-26T07:20:33.516Z,12.30
2018-07-26T07:23:01.977Z,9.10
2018-07-26T07:25:30.452Z,5.80
2018-07-26T07:27:59.057Z,7.30
2018-07-26T07:30:27.600Z,4.80
2018-07-26T07:32:56.201Z,5.47
2018-07-26T07:35:24.709Z,6.83
2018-07-26T07:37:52.912Z,9.50
2018-07-26T07:40:21.436Z,5.13
2018-07-26T07:42:49.938Z,10.03
2018-07-26T07:45:18.877Z,7.53
2018-07-26T07:47:47.488Z,8.23
2018-07-26T07:50:15.981Z,9.97
2018-07-26T07:52:44.137Z,7.30
2018-07-26T07:55:12.710Z,5.67
2018-07-26T07:57:41.354Z,5.73
2018-07-26T08:00:11.132Z,5.10
2018-07-26T08:02:39.614Z,9.20
2018-07-26T08:05:08.244Z,4.73
2018-07-26T08:07:36.925Z,6.83
2018-07-26T08:10:07.414Z,3.57
2018-07-26T08:12:35.978Z,4.07
2018-07-26T08:15:05.585Z,3.77
2018-07-26T08:17:34.132Z,4.47
2018-07-26T08:20:02.914Z,4.93
2018-07-26T08:22:31.581Z,5.20
2018-07-26T08:25:00.117Z,4.63
2018-07-26T08:27:28.601Z,3.13
2018-07-26T08:29:57.079Z,4.30
2018-07-26T08:32:25.605Z,3.63
2018-07-26T08:34:54.104Z,5.43
2018-07-26T08:37:23.367Z,7.10
2018-07-26T08:39:51.845Z,3.13
2018-07-26T08:42:20.414Z,3.20
2018-07-26T08:44:48.945Z,4.60
2018-07-26T08:47:17.555Z,4.57
2018-07-26T08:49:46.053Z,2.60
2018-07-26T08:52:14.735Z,3.00
2018-07-26T08:54:43.138Z,3.90
2018-07-26T08:57:11.732Z,5.07
2018-07-26T08:59:40.276Z,3.53
2018-07-26T09:02:08.877Z,2.47
2018-07-26T09:04:37.472Z,2.60
2018-07-26T09:07:06.603Z,4.73
2018-07-26T09:09:35.069Z,3.30
2018-07-26T09:12:03.504Z,3.83
2018-07-26T09:14:32.024Z,2.47
2018-07-26T09:17:00.589Z,1.83
2018-07-26T09:19:29.176Z,2.20
2018-07-26T09:21:57.639Z,2.23
2018-07-26T09:24:26.205Z,1.70
2018-07-26T09:26:54.585Z,4.27
2018-07-26T09:29:23.098Z,4.63
2018-07-26T09:31:51.544Z,2.87
2018-07-26T09:34:19.692Z,3.40
2018-07-26T09:36:48.154Z,6.20
2018-07-26T09:39:16.641Z,2.50
2018-07-26T09:41:45.170Z,3.53
2018-07-26T09:44:13.689Z,6.03
2018-07-26T09:46:42.179Z,3.50
2018-07-26T09:49:10.728Z,3.97
2018-07-26T09:51:39.232Z,4.70
2018-07-26T09:54:08.385Z,2.50
2018-07-26T09:56:36.920Z,4.03
2018-07-26T09:59:05.565Z,4.87
2018-07-26T10:01:35.464Z,4.10
2018-07-26T10:04:04.210Z,2.80
2018-07-26T10:06:32.715Z,6.80
2018-07-26T10:09:01.365Z,2.13
2018-07-26T10:11:30.474Z,2.33
2018-07-26T10:13:59.183Z,4.73
2018-07-26T10:16:27.641Z,3.20
2018-07-26T10:18:56.125Z,3.80
2018-07-26T10:21:24.588Z,6.10
2018-07-26T10:23:53.064Z,5.97
2018-07-26T10:26:21.545Z,4.67
2018-07-26T10:28:50.081Z,7.50
2018-07-26T10:31:18.909Z,9.10
2018-07-26T10:33:47.585Z,3.07
2018-07-26T10:36:15.829Z,8.00
2018-07-26T10:38:44.300Z,3.73
2018-07-26T10:41:12.931Z,2.90
2018-07-26T10:43:41.465Z,6.03
2018-07-26T10:46:09.968Z,3.30
2018-07-26T10:48:38.120Z,5.53
2018-07-26T10:51:06.611Z,5.90
2018-07-26T10:53:35.103Z,2.50
2018-07-26T10:56:03.985Z,5.13
2018-07-26T10:58:32.488Z,4.00
2018-07-26T11:01:01.841Z,4.13
2018-07-26T11:03:30.509Z,2.30
2018-07-26T11:05:59.211Z,5.30
2018-07-26T11:08:28.274Z,3.40
2018-07-26T11:10:56.861Z,2.67
2018-07-26T11:13:25.312Z,4.70
2018-07-26T11:15:53.874Z,2.70
2018-07-26T11:18:22.367Z,4.60
2018-07-26T11:20:50.935Z,3.90
2018-07-26T11:23:19.416Z,4.33
2018-07-26T11:25:48.018Z,3.40
2018-07-26T11:28:16.474Z,3.37
2018-07-26T11:30:45.381Z,4.93
2018-07-26T11:33:13.864Z,4.30
2018-07-26T11:35:42.372Z,5.07
2018-07-26T11:38:10.920Z,7.60
2018-07-26T11:40:39.460Z,4.23
2018-07-26T11:43:07.639Z,3.40
2018-07-26T11:45:36.117Z,3.60
2018-07-26T11:48:04.697Z,3.13
2018-07-26T11:50:32.835Z,5.07
2018-07-26T11:53:01.316Z,3.70
2018-07-26T11:55:29.761Z,3.50
2018-07-26T11:57:58.282Z,6.13
2018-07-26T12:00:26.807Z,4.63
2018-07-26T12:02:55.360Z,4.27
2018-07-26T12:05:23.768Z,7.00
2018-07-26T12:07:52.204Z,10.70
2018-07-26T12:10:20.728Z,3.90
2018-07-26T12:12:49.204Z,6.80
2018-07-26T12:15:17.695Z,3.90
2018-07-26T12:17:46.259Z,6.20
2018-07-26T12:20:14.732Z,4.93
2018-07-26T12:22:43.289Z,6.40
2018-07-26T12:25:11.920Z,3.20
2018-07-26T12:27:40.433Z,3.53
2018-07-26T12:30:09.010Z,3.73
2018-07-26T12:32:38.040Z,4.10
2018-07-26T12:35:06.651Z,3.70
2018-07-26T12:37:35.118Z,3.30
2018-07-26T12:40:03.844Z,3.77
2018-07-26T12:42:32.380Z,7.77
2018-07-26T12:45:01.290Z,3.70
2018-07-26T12:47:29.811Z,3.20
2018-07-26T12:49:58.155Z,7.47
2018-07-26T12:52:26.673Z,4.77
2018-07-26T12:54:55.255Z,5.23
2018-07-26T12:57:23.774Z,4.73
2018-07-26T12:59:53.017Z,3.23
2018-07-26T13:02:21.473Z,4.00
2018-07-26T13:04:49.955Z,3.43
2018-07-26T13:07:18.492Z,7.60
2018-07-26T13:09:47.021Z,5.20
2018-07-26T13:12:15.794Z,3.40
2018-07-26T13:14:44.228Z,4.00
2018-07-26T13:17:13.712Z,3.07
2018-07-26T13:19:43.188Z,3.33
2018-07-26T13:22:11.796Z,6.17
2018-07-26T13:24:40.297Z,3.13
2018-07-26T13:27:08.398Z,3.83
2018-07-26T13:29:37.403Z,2.93
2018-07-26T13:32:06.765Z,7.00
2018-07-26T13:34:35.024Z,5.10
2018-07-26T13:37:03.480Z,5.30
2018-07-26T13:39:32.012Z,5.07
2018-07-26T13:42:00.496Z,7.30
2018-07-26T13:44:28.955Z,5.90
2018-07-26T13:46:57.433Z,4.90
2018-07-26T13:49:26.044Z,8.40
2018-07-26T13:51:54.185Z,3.40
2018-07-26T13:54:22.622Z,4.17
2018-07-26T13:56:51.060Z,5.03
2018-07-26T13:59:19.551Z,3.40
2018-07-26T14:01:47.744Z,3.20
2018-07-26T14:04:15.863Z,3.30
2018-07-26T14:06:44.356Z,8.40
2018-07-26T14:09:13.157Z,5.40
2018-07-26T14:11:42.193Z,3.73
2018-07-26T14:14:10.687Z,2.60
2018-07-26T14:16:39.209Z,3.30
2018-07-26T14:19:08.481Z,3.80
2018-07-26T14:21:37.112Z,3.50
2018-07-26T14:24:11.237Z,4.17
2018-07-26T14:26:39.712Z,7.03
2018-07-26T14:29:07.956Z,3.93
2018-07-26T14:31:37.513Z,10.93
2018-07-26T14:34:05.959Z,3.30
2018-07-26T14:36:34.447Z,8.87
2018-07-26T14:39:03.495Z,4.23
2018-07-26T14:41:33.050Z,3.80
2018-07-26T14:44:01.677Z,3.90
2018-07-26T14:46:30.164Z,2.93
2018-07-26T14:48:58.750Z,3.23
2018-07-26T14:51:27.295Z,6.20
2018-07-26T14:53:55.683Z,11.97
2018-07-26T14:56:23.850Z,5.10
2018-07-26T14:58:52.482Z,4.33
2018-07-26T15:01:20.713Z,4.67
2018-07-26T15:03:49.353Z,5.13
2018-07-26T15:06:18.670Z,5.50
2018-07-26T15:08:47.171Z,4.03
2018-07-26T15:11:15.980Z,3.00
2018-07-26T15:13:44.200Z,5.10
2018-07-26T15:16:12.780Z,3.90
2018-07-26T15:18:42.249Z,3.93
2018-07-26T15:21:10.905Z,4.00
2018-07-26T15:23:40.193Z,3.27
2018-07-26T15:26:08.693Z,3.07
2018-07-26T15:28:37.107Z,3.67
2018-07-26T15:31:05.685Z,7.70
2018-07-26T15:33:34.160Z,4.20
2018-07-26T15:36:02.712Z,4.47
2018-07-26T15:38:31.220Z,4.20
2018-07-26T15:40:59.384Z,4.43
2018-07-26T15:43:27.949Z,5.37
2018-07-26T15:45:56.520Z,4.37
2018-07-26T15:48:25.113Z,5.17
2018-07-26T15:50:53.685Z,4.50
2018-07-26T15:53:22.495Z,6.70
2018-07-26T15:55:50.941Z,6.77
2018-07-26T15:58:19.532Z,4.10
2018-07-26T16:00:48.085Z,6.50
2018-07-26T16:03:16.678Z,4.77
2018-07-26T16:05:45.164Z,6.00
2018-07-26T16:08:13.722Z,4.90
2018-07-26T16:10:42.171Z,3.73
2018-07-26T16:13:10.709Z,3.80
2018-07-26T16:15:39.185Z,5.90
2018-07-26T16:18:07.776Z,5.57
2018-07-26T16:33:40.604Z,5.27
2018-07-26T16:36:08.747Z,7.17
2018-07-26T16:38:37.233Z,4.80
2018-07-26T16:41:05.851Z,3.30
2018-07-26T16:43:34.317Z,4.20
2018-07-26T16:46:02.845Z,5.00
2018-07-26T16:48:31.355Z,7.43
2018-07-26T16:50:59.822Z,11.60
2018-07-26T16:53:28.335Z,6.43
2018-07-26T16:55:56.837Z,3.60
2018-07-26T16:58:25.155Z,4.57
2018-07-26T17:00:53.554Z,7.50
2018-07-26T17:03:22.010Z,4.07
2018-07-26T17:05:50.547Z,3.90
2018-07-26T17:08:19.071Z,4.30
2018-07-26T17:10:47.801Z,8.07
2018-07-26T17:13:16.370Z,7.00
2018-07-26T17:15:44.940Z,4.50
2018-07-26T17:18:13.415Z,10.97
2018-07-26T17:20:41.889Z,6.03
2018-07-26T17:23:10.155Z,5.50
2018-07-26T17:25:38.762Z,3.93
2018-07-26T17:28:07.592Z,7.37
2018-07-26T17:30:36.204Z,4.97
2018-07-26T17:33:04.749Z,4.47
2018-07-26T17:35:33.354Z,4.20
2018-07-26T17:38:01.920Z,9.90
2018-07-26T17:40:30.394Z,4.87
2018-07-26T17:42:58.879Z,3.77
2018-07-26T17:45:27.367Z,4.40
2018-07-26T17:47:55.836Z,5.10
2018-07-26T17:50:24.317Z,7.73
2018-07-26T17:52:52.896Z,3.97
2018-07-26T17:55:21.421Z,5.70
2018-07-26T17:57:49.920Z,4.43
2018-07-26T18:00:18.446Z,3.63
2018-07-26T18:02:46.948Z,5.00
2018-07-26T18:05:15.664Z,7.80
2018-07-26T18:07:44.174Z,4.80
2018-07-26T18:10:12.640Z,4.83
2018-07-26T18:12:41.097Z,4.00
2018-07-26T18:15:09.837Z,4.23
2018-07-26T18:17:39.389Z,5.63
2018-07-26T18:20:08.290Z,5.33
2018-07-26T18:22:36.914Z,4.43
2018-07-26T18:25:05.644Z,4.67
2018-07-26T18:27:34.147Z,6.57
2018-07-26T18:30:02.632Z,9.07
2018-07-26T18:32:31.600Z,11.50
2018-07-26T18:35:00.297Z,15.00
2018-07-26T18:37:28.864Z,7.00
2018-07-26T18:39:57.358Z,6.73
2018-07-26T18:42:26.056Z,5.93
2018-07-26T18:44:54.605Z,6.37
2018-07-26T18:47:23.214Z,9.40
2018-07-26T18:49:51.692Z,7.80
2018-07-26T18:52:20.185Z,5.27
2018-07-26T18:54:48.708Z,6.90
2018-07-26T18:57:17.229Z,9.20
2018-07-26T18:59:45.824Z,7.00
2018-07-26T19:02:14.410Z,4.73
2018-07-26T19:04:42.792Z,7.93
2018-07-26T19:07:11.383Z,6.10
2018-07-26T19:09:39.926Z,5.17
2018-07-26T19:12:08.424Z,4.90
2018-07-26T19:14:36.893Z,5.00
2018-07-26T19:17:05.928Z,8.57
2018-07-26T19:19:34.423Z,8.77
2018-07-26T19:22:03.037Z,6.20
2018-07-26T19:24:31.543Z,4.23
2018-07-26T19:26:59.990Z,4.70
2018-07-26T19:29:28.575Z,5.83
2018-07-26T19:31:56.728Z,5.90
2018-07-26T19:34:25.346Z,6.20
2018-07-26T19:36:53.868Z,6.03
2018-07-26T19:39:22.357Z,8.13
2018-07-26T19:41:50.865Z,7.77
2018-07-26T19:44:19.449Z,8.30
2018-07-26T19:46:48.112Z,6.77
2018-07-26T19:49:16.728Z,7.50
2018-07-26T19:51:45.416Z,10.50
2018-07-26T19:54:13.881Z,5.20
2018-07-26T19:56:42.451Z,8.70
2018-07-26T19:59:11.580Z,8.87
2018-07-26T20:01:40.213Z,6.77
2018-07-26T20:04:08.810Z,5.37
2018-07-26T20:06:37.437Z,6.37
2018-07-26T20:09:08.634Z,5.63
2018-07-26T20:11:37.450Z,8.10
2018-07-26T20:14:06.982Z,5.40
2018-07-26T20:16:35.563Z,6.47
2018-07-26T20:19:04.085Z,5.80
2018-07-26T20:21:32.541Z,5.93
2018-07-26T20:24:01.137Z,5.53
2018-07-26T20:26:29.641Z,11.93
2018-07-26T20:28:58.737Z,5.93
2018-07-26T20:31:27.168Z,9.73
2018-07-26T20:33:55.365Z,11.23
2018-07-26T20:36:23.867Z,9.27
2018-07-26T20:38:52.528Z,6.07
2018-07-26T20:41:20.972Z,5.77
2018-07-26T20:43:49.662Z,6.90
2018-07-26T20:46:18.093Z,8.43
2018-07-26T20:48:46.572Z,8.20
2018-07-26T20:51:15.053Z,6.93
2018-07-26T20:53:43.530Z,6.60
2018-07-26T20:56:12.029Z,11.70
2018-07-26T20:58:40.501Z,12.30
2018-07-26T21:01:09.441Z,13.30
2018-07-26T21:03:37.856Z,8.53
2018-07-26T21:06:06.362Z,9.73
2018-07-26T21:08:35.471Z,6.60
2018-07-26T21:11:04.773Z,8.37
2018-07-26T21:13:33.206Z,5.40
2018-07-26T21:16:01.712Z,6.07
2018-07-26T21:18:30.353Z,13.20
2018-07-26T21:20:58.756Z,7.27
2018-07-26T21:23:27.255Z,7.50
2018-07-26T21:25:56.629Z,13.97
2018-07-26T21:28:25.104Z,8.30
2018-07-26T21:30:53.637Z,13.43
2018-07-26T21:33:22.112Z,7.50
2018-07-26T21:35:50.579Z,9.83
2018-07-26T21:38:19.227Z,9.73
2018-07-26T21:40:47.692Z,7.53
2018-07-26T21:43:16.700Z,6.60
2018-07-26T21:45:45.153Z,8.90
2018-07-26T21:48:13.646Z,9.27
2018-07-26T21:50:42.093Z,7.13
2018-07-26T21:53:10.570Z,10.17
2018-07-26T21:55:39.068Z,12.27
2018-07-26T21:58:07.528Z,7.70
2018-07-26T22:00:41.778Z,7.50
2018-07-26T22:03:10.367Z,11.07
2018-07-26T22:05:38.919Z,8.17
2018-07-26T22:08:07.417Z,9.57
2018-07-26T22:10:35.923Z,8.60
2018-07-26T22:13:04.514Z,13.47
2018-07-26T22:15:33.031Z,10.17
2018-07-26T22:18:01.484Z,8.30
2018-07-26T22:20:29.917Z,7.60
2018-07-26T22:22:58.395Z,6.33
2018-07-26T22:25:26.888Z,10.53
2018-07-26T22:27:55.355Z,7.80
2018-07-26T22:30:23.845Z,9.13
2018-07-26T22:32:52.315Z,7.27
2018-07-26T22:35:20.764Z,9.53
2018-07-26T22:37:49.193Z,9.20
2018-07-26T22:40:17.705Z,7.70
2018-07-26T22:42:46.177Z,10.07
2018-07-26T22:45:14.772Z,7.90
2018-07-26T22:47:43.210Z,8.90
2018-07-26T22:50:11.721Z,7.17
2018-07-26T22:52:40.304Z,7.90
2018-07-26T22:55:09.396Z,10.97
2018-07-26T22:57:37.884Z,7.50
2018-07-26T23:00:06.711Z,7.63
2018-07-26T23:02:35.717Z,7.53
2018-07-26T23:05:04.636Z,8.57
2018-07-26T23:07:33.087Z,6.10
2018-07-26T23:10:01.513Z,9.43
2018-07-26T23:12:30.001Z,7.47
2018-07-26T23:14:58.933Z,10.70
2018-07-26T23:17:27.413Z,8.93
2018-07-26T23:19:55.941Z,7.07
2018-07-26T23:22:24.409Z,8.40
2018-07-26T23:24:53.984Z,6.43
2018-07-26T23:27:22.552Z,7.53
2018-07-26T23:29:51.084Z,9.20
2018-07-26T23:32:19.553Z,9.67
2018-07-26T23:34:48.613Z,7.60
2018-07-26T23:37:17.216Z,12.97
2018-07-26T23:39:45.692Z,8.57
2018-07-26T23:42:14.183Z,8.20
2018-07-26T23:44:43.427Z,7.30
2018-07-26T23:47:11.892Z,7.67
2018-07-26T23:49:40.368Z,8.57
2018-07-26T23:52:08.845Z,6.83
2018-07-26T23:54:37.353Z,8.10
2018-07-26T23:57:05.992Z,7.10
2018-07-26T23:59:34.255Z,9.00
